Archival Weather

NSFA McMurdo Sound

NSFA McMurdo Sound, Antarctica (NZCM)

Report from: Friday, September 23, 2022 12:55 PM UTC
Current time: Sunday, December 4, 2022 12:47 PM UTC

Current weather
Weather history
Weather forecast

Present weatherLight snow, mist
Temperature-19.5°C (-3.1°F)
Wind chill-31.1°C (-24.0°F)
Dew point-24.2°C (-11.6°F)
Winds 14 kts (7.2 m/s, 16.1 mph) Vrb
Wind gusts 30 kts (15.4 m/s, 34.5 mph)
Winds variableWinds variable from East-Northeast (60°) to Southeast (140°)
Peak wind 30 kts (15.4 m/s, 34.5 mph) East-Northeast (70°) at 07:51
Visibility2.1 mi. (3.3 km)
Clouds Ceiling: Overcast 2,100 ft. (640 m)
Altimeter28.61 in.Hg (969 mB)
Precip. events Snow ended 11:56 AM
Snow began 11:59 AM
Snow ended 12:37 PM
Snow began 12:46 PM
Relative humidity66 %
Density altitude-2,824 ft. (-861 m)
Sea-level pressure106.9 kPa (1069 mB, 31.58 in.Hg)
Remarks Fully automated report
System requires maintenance
Automated weather observing station with precipitation discriminator
Flight conditions Instrument Meteorological Conditions
Raw dataNZCM 231255Z AUTO 08014G30KT 060V140 3300 -SN BR OVC021 M19/M24 A2861 RMK AO2 PK WND 07030/1251 WSHFT 1156 SNE1156B1159E1237B1246 SLP694 T11951242 $
An error has occurred. This application may no longer respond until reloaded. Reload 🗙